sensor_id;sensor_type;location;lat;lon;timestamp;noise_LAeq;noise_LA_min;noise_LA_max;noise_LA01;noise_LA95
43385;Laerm;28988;48.042;7.584;2023-10-19T00:01:34;84.17;-20.71;93.95;;
43385;Laerm;28988;48.042;7.584;2023-10-19T00:04:20;84.16;-51.62;93.64;;
43385;Laerm;28988;48.042;7.584;2023-10-19T00:07:07;84.15;-51.62;93.10;;
43385;Laerm;28988;48.042;7.584;2023-10-19T00:09:53;84.17;-20.71;93.31;;
43385;Laerm;28988;48.042;7.584;2023-10-19T00:12:39;84.17;-80.69;93.50;;
43385;Laerm;28988;48.042;7.584;2023-10-19T00:15:24;84.18;-23.76;93.98;;
43385;Laerm;28988;48.042;7.584;2023-10-19T00:18:11;84.21;-24.05;94.12;;
43385;Laerm;28988;48.042;7.584;2023-10-19T00:21:03;84.20;-32.90;94.43;;
43385;Laerm;28988;48.042;7.584;2023-10-19T00:24:07;84.22;-33.10;94.77;;
43385;Laerm;28988;48.042;7.584;2023-10-19T00:26:55;84.23;-23.73;94.81;;
43385;Laerm;28988;48.042;7.584;2023-10-19T00:29:41;84.28;-33.10;95.51;;
43385;Laerm;28988;48.042;7.584;2023-10-19T00:32:28;84.29;-34.16;95.58;;
43385;Laerm;28988;48.042;7.584;2023-10-19T00:35:15;84.32;-57.68;95.74;;
43385;Laerm;28988;48.042;7.584;2023-10-19T00:38:15;84.31;-57.68;95.57;;
43385;Laerm;28988;48.042;7.584;2023-10-19T00:41:27;84.30;-26.87;95.75;;
43385;Laerm;28988;48.042;7.584;2023-10-19T00:44:16;84.44;-31.18;96.04;;
43385;Laerm;28988;48.042;7.584;2023-10-19T00:47:08;84.65;-34.82;96.50;;
43385;Laerm;28988;48.042;7.584;2023-10-19T00:49:58;85.01;-31.54;97.07;;
43385;Laerm;28988;48.042;7.584;2023-10-19T00:52:48;85.25;-46.44;96.38;;
43385;Laerm;28988;48.042;7.584;2023-10-19T00:55:37;85.32;-40.04;96.51;;
43385;Laerm;28988;48.042;7.584;2023-10-19T00:58:24;85.26;-37.47;96.57;;
43385;Laerm;28988;48.042;7.584;2023-10-19T01:01:15;85.12;-65.81;95.91;;
43385;Laerm;28988;48.042;7.584;2023-10-19T01:04:03;85.13;-38.65;96.98;;
43385;Laerm;28988;48.042;7.584;2023-10-19T01:06:49;85.28;-33.66;96.57;;
43385;Laerm;28988;48.042;7.584;2023-10-19T01:09:50;85.05;-57.00;96.94;;
43385;Laerm;28988;48.042;7.584;2023-10-19T01:12:38;84.86;-65.13;95.95;;
43385;Laerm;28988;48.042;7.584;2023-10-19T01:15:28;84.75;-41.37;96.77;;
43385;Laerm;28988;48.042;7.584;2023-10-19T01:18:14;84.69;-41.53;95.68;;
43385;Laerm;28988;48.042;7.584;2023-10-19T01:21:00;84.59;-35.92;96.00;;
43385;Laerm;28988;48.042;7.584;2023-10-19T01:23:52;84.58;-57.68;96.48;;
43385;Laerm;28988;48.042;7.584;2023-10-19T01:26:38;84.55;-34.16;96.29;;
43385;Laerm;28988;48.042;7.584;2023-10-19T01:29:24;84.55;-39.78;96.50;;
43385;Laerm;28988;48.042;7.584;2023-10-19T01:32:12;84.49;-46.31;95.72;;
43385;Laerm;28988;48.042;7.584;2023-10-19T01:35:00;84.51;-24.82;96.35;;
43385;Laerm;28988;48.042;7.584;2023-10-19T01:37:48;84.74;-47.13;96.15;;
43385;Laerm;28988;48.042;7.584;2023-10-19T01:40:33;85.01;-38.45;96.50;;
43385;Laerm;28988;48.042;7.584;2023-10-19T01:43:19;85.23;-48.02;96.02;;
43385;Laerm;28988;48.042;7.584;2023-10-19T01:46:11;85.34;-47.20;96.28;;
43385;Laerm;28988;48.042;7.584;2023-10-19T01:48:57;84.92;-30.89;96.50;;
43385;Laerm;28988;48.042;7.584;2023-10-19T01:51:42;84.42;-39.78;96.38;;
43385;Laerm;28988;48.042;7.584;2023-10-19T01:54:29;84.34;-41.54;95.70;;
43385;Laerm;28988;48.042;7.584;2023-10-19T01:57:15;84.32;-27.57;95.76;;
43385;Laerm;28988;48.042;7.584;2023-10-19T02:00:01;84.31;-57.68;95.77;;
43385;Laerm;28988;48.042;7.584;2023-10-19T02:02:56;84.31;-34.16;95.39;;
43385;Laerm;28988;48.042;7.584;2023-10-19T02:05:42;84.33;-28.29;95.54;;
43385;Laerm;28988;48.042;7.584;2023-10-19T02:08:28;84.32;-36.24;95.39;;
43385;Laerm;28988;48.042;7.584;2023-10-19T02:11:15;84.33;-57.68;95.16;;
43385;Laerm;28988;48.042;7.584;2023-10-19T02:14:04;84.30;-57.68;95.33;;
43385;Laerm;28988;48.042;7.584;2023-10-19T02:16:54;84.31;-57.68;95.33;;
43385;Laerm;28988;48.042;7.584;2023-10-19T02:19:44;84.29;-57.68;95.82;;
43385;Laerm;28988;48.042;7.584;2023-10-19T02:22:29;84.28;-23.73;95.39;;
43385;Laerm;28988;48.042;7.584;2023-10-19T02:25:15;84.28;-23.73;95.44;;
43385;Laerm;28988;48.042;7.584;2023-10-19T02:28:05;84.28;-57.68;95.54;;
43385;Laerm;28988;48.042;7.584;2023-10-19T02:30:54;84.26;-33.10;94.97;;
43385;Laerm;28988;48.042;7.584;2023-10-19T02:33:40;84.27;-57.68;95.94;;
43385;Laerm;28988;48.042;7.584;2023-10-19T02:36:29;84.27;-23.73;94.77;;
43385;Laerm;28988;48.042;7.584;2023-10-19T02:39:16;84.28;-33.10;94.94;;
43385;Laerm;28988;48.042;7.584;2023-10-19T02:42:04;84.29;-33.10;95.17;;
43385;Laerm;28988;48.042;7.584;2023-10-19T02:44:50;84.27;-57.68;95.19;;
43385;Laerm;28988;48.042;7.584;2023-10-19T02:47:36;84.28;-23.73;94.89;;
43385;Laerm;28988;48.042;7.584;2023-10-19T02:50:30;84.29;-57.68;95.57;;
43385;Laerm;28988;48.042;7.584;2023-10-19T02:53:16;84.29;-33.10;95.64;;
43385;Laerm;28988;48.042;7.584;2023-10-19T02:56:15;84.27;-30.06;95.19;;
43385;Laerm;28988;48.042;7.584;2023-10-19T02:59:05;84.27;-57.68;95.73;;
43385;Laerm;28988;48.042;7.584;2023-10-19T03:01:51;84.24;-57.68;95.08;;
43385;Laerm;28988;48.042;7.584;2023-10-19T03:04:37;84.26;-23.73;95.48;;
43385;Laerm;28988;48.042;7.584;2023-10-19T03:07:23;84.23;-23.73;94.49;;
43385;Laerm;28988;48.042;7.584;2023-10-19T03:10:09;84.23;-57.68;94.31;;
43385;Laerm;28988;48.042;7.584;2023-10-19T03:13:20;84.19;-57.68;94.16;;
43385;Laerm;28988;48.042;7.584;2023-10-19T03:16:07;84.20;-22.86;94.25;;
43385;Laerm;28988;48.042;7.584;2023-10-19T03:18:52;84.19;-33.10;94.00;;
43385;Laerm;28988;48.042;7.584;2023-10-19T03:21:40;84.21;-57.68;94.27;;
43385;Laerm;28988;48.042;7.584;2023-10-19T03:24:29;84.20;-28.29;94.12;;
43385;Laerm;28988;48.042;7.584;2023-10-19T03:27:21;84.20;-57.68;94.76;;
43385;Laerm;28988;48.042;7.584;2023-10-19T03:30:10;84.21;-33.10;94.70;;
43385;Laerm;28988;48.042;7.584;2023-10-19T03:33:00;84.21;-43.98;94.27;;
43385;Laerm;28988;48.042;7.584;2023-10-19T03:35:46;84.23;-57.68;94.57;;
43385;Laerm;28988;48.042;7.584;2023-10-19T03:38:32;84.22;-28.29;94.56;;
43385;Laerm;28988;48.042;7.584;2023-10-19T03:41:22;84.23;-23.73;94.80;;
43385;Laerm;28988;48.042;7.584;2023-10-19T03:44:11;84.25;-57.68;95.11;;
43385;Laerm;28988;48.042;7.584;2023-10-19T03:47:09;84.28;-23.73;95.26;;
43385;Laerm;28988;48.042;7.584;2023-10-19T03:50:00;84.31;-23.73;95.38;;
43385;Laerm;28988;48.042;7.584;2023-10-19T03:52:47;84.33;-26.87;95.53;;
43385;Laerm;28988;48.042;7.584;2023-10-19T03:55:32;84.36;-28.29;96.09;;
43385;Laerm;28988;48.042;7.584;2023-10-19T03:58:23;84.41;-60.03;95.61;;
43385;Laerm;28988;48.042;7.584;2023-10-19T04:01:09;84.45;-40.02;96.01;;
43385;Laerm;28988;48.042;7.584;2023-10-19T04:03:54;84.46;-42.72;95.88;;
43385;Laerm;28988;48.042;7.584;2023-10-19T04:06:40;84.49;-35.41;96.09;;
43385;Laerm;28988;48.042;7.584;2023-10-19T04:09:26;84.49;-38.61;96.16;;
43385;Laerm;28988;48.042;7.584;2023-10-19T04:12:15;84.46;-38.09;95.39;;
43385;Laerm;28988;48.042;7.584;2023-10-19T04:15:06;84.48;-39.78;96.40;;
43385;Laerm;28988;48.042;7.584;2023-10-19T04:18:01;84.44;-39.78;95.48;;
43385;Laerm;28988;48.042;7.584;2023-10-19T04:20:47;84.53;-41.92;96.41;;
43385;Laerm;28988;48.042;7.584;2023-10-19T04:23:35;84.63;-35.78;96.31;;
43385;Laerm;28988;48.042;7.584;2023-10-19T04:26:21;84.80;-34.96;95.81;;
43385;Laerm;28988;48.042;7.584;2023-10-19T04:29:07;85.07;-39.66;97.79;;
43385;Laerm;28988;48.042;7.584;2023-10-19T04:31:56;85.28;-47.13;97.07;;
43385;Laerm;28988;48.042;7.584;2023-10-19T04:34:44;85.57;-36.67;96.48;;
43385;Laerm;28988;48.042;7.584;2023-10-19T04:37:30;85.81;-30.20;96.93;;
43385;Laerm;28988;48.042;7.584;2023-10-19T04:40:16;85.96;-51.23;96.81;;
43385;Laerm;28988;48.042;7.584;2023-10-19T04:43:02;86.28;-23.41;97.21;;
43385;Laerm;28988;48.042;7.584;2023-10-19T04:45:50;86.59;-43.10;97.93;;
43385;Laerm;28988;48.042;7.584;2023-10-19T04:48:37;86.79;-39.00;97.93;;
43385;Laerm;28988;48.042;7.584;2023-10-19T04:51:22;86.99;-36.29;97.68;;
43385;Laerm;28988;48.042;7.584;2023-10-19T04:54:08;87.10;-35.01;97.52;;
43385;Laerm;28988;48.042;7.584;2023-10-19T04:56:54;87.20;-42.96;97.60;;
43385;Laerm;28988;48.042;7.584;2023-10-19T04:59:41;87.33;-31.23;99.23;;
43385;Laerm;28988;48.042;7.584;2023-10-19T05:02:30;87.35;-28.70;97.91;;
43385;Laerm;28988;48.042;7.584;2023-10-19T05:05:16;87.46;-32.61;97.66;;
43385;Laerm;28988;48.042;7.584;2023-10-19T05:08:02;87.52;-26.68;98.33;;
43385;Laerm;28988;48.042;7.584;2023-10-19T05:10:48;87.61;-31.14;100.46;;
43385;Laerm;28988;48.042;7.584;2023-10-19T05:13:37;87.67;-28.94;98.76;;
43385;Laerm;28988;48.042;7.584;2023-10-19T05:16:22;87.81;-39.66;98.51;;
43385;Laerm;28988;48.042;7.584;2023-10-19T05:19:08;87.84;-40.36;98.45;;
43385;Laerm;28988;48.042;7.584;2023-10-19T05:21:54;87.80;-36.84;98.88;;
43385;Laerm;28988;48.042;7.584;2023-10-19T05:24:39;88.03;-28.23;98.91;;
43385;Laerm;28988;48.042;7.584;2023-10-19T05:27:25;88.22;-44.21;98.57;;
43385;Laerm;28988;48.042;7.584;2023-10-19T05:30:11;88.48;-39.66;99.43;;
43385;Laerm;28988;48.042;7.584;2023-10-19T05:32:57;88.78;-32.02;100.08;;
43385;Laerm;28988;48.042;7.584;2023-10-19T05:35:47;88.90;-46.54;100.21;;
43385;Laerm;28988;48.042;7.584;2023-10-19T05:38:32;89.11;-41.95;100.44;;
43385;Laerm;28988;48.042;7.584;2023-10-19T05:41:18;89.28;-31.28;99.88;;
43385;Laerm;28988;48.042;7.584;2023-10-19T05:44:06;89.49;-30.31;100.45;;
43385;Laerm;28988;48.042;7.584;2023-10-19T05:46:52;89.77;-37.45;99.97;;
43385;Laerm;28988;48.042;7.584;2023-10-19T05:49:38;89.97;-65.36;100.64;;
43385;Laerm;28988;48.042;7.584;2023-10-19T05:52:23;90.01;-38.17;100.93;;
43385;Laerm;28988;48.042;7.584;2023-10-19T05:55:09;90.35;-34.79;101.45;;
43385;Laerm;28988;48.042;7.584;2023-10-19T05:57:56;90.79;-27.34;102.04;;
43385;Laerm;28988;48.042;7.584;2023-10-19T06:00:42;91.25;-25.95;102.21;;
43385;Laerm;28988;48.042;7.584;2023-10-19T06:03:28;91.78;-48.81;102.26;;
43385;Laerm;28988;48.042;7.584;2023-10-19T06:06:13;92.24;-27.85;102.69;;
43385;Laerm;28988;48.042;7.584;2023-10-19T06:08:59;92.52;-38.13;102.97;;
43385;Laerm;28988;48.042;7.584;2023-10-19T06:11:46;92.76;-15.75;102.32;;
43385;Laerm;28988;48.042;7.584;2023-10-19T06:14:31;92.78;-27.47;103.24;;
43385;Laerm;28988;48.042;7.584;2023-10-19T06:17:17;92.69;-33.61;102.30;;
43385;Laerm;28988;48.042;7.584;2023-10-19T06:20:05;92.70;-76.53;102.49;;
43385;Laerm;28988;48.042;7.584;2023-10-19T06:22:55;92.71;-30.28;102.65;;
43385;Laerm;28988;48.042;7.584;2023-10-19T06:25:41;92.49;-29.98;102.86;;
43385;Laerm;28988;48.042;7.584;2023-10-19T06:28:28;92.45;-25.33;102.87;;
43385;Laerm;28988;48.042;7.584;2023-10-19T06:31:14;92.52;-36.41;103.11;;
43385;Laerm;28988;48.042;7.584;2023-10-19T06:34:00;92.63;-26.52;103.03;;
43385;Laerm;28988;48.042;7.584;2023-10-19T06:36:46;92.66;-31.74;103.03;;
43385;Laerm;28988;48.042;7.584;2023-10-19T06:39:32;92.90;-32.45;103.63;;
43385;Laerm;28988;48.042;7.584;2023-10-19T06:42:17;92.86;-54.83;102.76;;
43385;Laerm;28988;48.042;7.584;2023-10-19T06:45:03;92.58;-32.17;102.49;;
43385;Laerm;28988;48.042;7.584;2023-10-19T06:47:49;92.22;-29.03;103.29;;
43385;Laerm;28988;48.042;7.584;2023-10-19T06:50:38;91.65;-33.95;102.34;;
43385;Laerm;28988;48.042;7.584;2023-10-19T06:53:23;90.85;-24.65;101.51;;
43385;Laerm;28988;48.042;7.584;2023-10-19T06:56:09;90.11;-27.04;100.57;;
43385;Laerm;28988;48.042;7.584;2023-10-19T06:58:56;89.38;-21.40;100.15;;
43385;Laerm;28988;48.042;7.584;2023-10-19T07:01:42;88.49;-29.54;99.60;;
43385;Laerm;28988;48.042;7.584;2023-10-19T07:04:28;87.73;-23.08;98.92;;
43385;Laerm;28988;48.042;7.584;2023-10-19T07:07:14;87.26;-41.49;98.03;;
43385;Laerm;28988;48.042;7.584;2023-10-19T07:09:59;86.86;-39.66;98.16;;
43385;Laerm;28988;48.042;7.584;2023-10-19T07:12:46;86.30;-33.43;97.23;;
43385;Laerm;28988;48.042;7.584;2023-10-19T07:15:31;85.92;-26.84;98.27;;
43385;Laerm;28988;48.042;7.584;2023-10-19T07:18:17;85.52;-34.89;96.38;;
43385;Laerm;28988;48.042;7.584;2023-10-19T07:21:03;85.34;-41.37;97.67;;
43385;Laerm;28988;48.042;7.584;2023-10-19T07:23:48;85.13;-42.19;96.36;;
43385;Laerm;28988;48.042;7.584;2023-10-19T07:26:37;85.05;-52.22;96.53;;
43385;Laerm;28988;48.042;7.584;2023-10-19T07:29:38;84.99;-41.37;96.27;;
43385;Laerm;28988;48.042;7.584;2023-10-19T07:32:28;84.91;-47.49;96.36;;
43385;Laerm;28988;48.042;7.584;2023-10-19T07:35:14;84.81;-59.26;95.76;;
43385;Laerm;28988;48.042;7.584;2023-10-19T07:37:59;84.66;-27.54;96.46;;
43385;Laerm;28988;48.042;7.584;2023-10-19T07:40:45;84.54;-69.94;95.85;;
43385;Laerm;28988;48.042;7.584;2023-10-19T07:43:30;84.50;-34.16;95.58;;
43385;Laerm;28988;48.042;7.584;2023-10-19T07:46:16;84.45;-47.13;95.82;;
43385;Laerm;28988;48.042;7.584;2023-10-19T07:49:02;84.40;-28.29;96.07;;
43385;Laerm;28988;48.042;7.584;2023-10-19T07:51:48;84.37;-57.68;95.56;;
43385;Laerm;28988;48.042;7.584;2023-10-19T07:54:35;84.39;-57.68;95.26;;
43385;Laerm;28988;48.042;7.584;2023-10-19T07:57:21;84.37;-53.75;95.56;;
43385;Laerm;28988;48.042;7.584;2023-10-19T08:00:06;84.39;-33.78;96.20;;
43385;Laerm;28988;48.042;7.584;2023-10-19T08:02:53;84.38;-39.78;96.15;;
43385;Laerm;28988;48.042;7.584;2023-10-19T08:05:39;84.39;-29.17;95.47;;
43385;Laerm;28988;48.042;7.584;2023-10-19T08:08:25;84.38;-57.68;95.93;;
43385;Laerm;28988;48.042;7.584;2023-10-19T08:11:10;84.38;-57.68;95.60;;
43385;Laerm;28988;48.042;7.584;2023-10-19T08:13:57;84.41;-28.29;95.80;;
43385;Laerm;28988;48.042;7.584;2023-10-19T08:16:43;84.42;-38.65;96.21;;
43385;Laerm;28988;48.042;7.584;2023-10-19T08:19:29;84.44;-37.47;96.54;;
43385;Laerm;28988;48.042;7.584;2023-10-19T08:22:16;84.48;-36.98;96.13;;
43385;Laerm;28988;48.042;7.584;2023-10-19T08:25:03;84.55;-69.05;96.77;;
43385;Laerm;28988;48.042;7.584;2023-10-19T08:27:57;84.62;-57.68;96.02;;
43385;Laerm;28988;48.042;7.584;2023-10-19T08:30:42;84.66;-47.13;96.84;;
43385;Laerm;28988;48.042;7.584;2023-10-19T08:33:30;84.76;-48.95;96.33;;
43385;Laerm;28988;48.042;7.584;2023-10-19T08:36:18;84.83;-38.42;95.91;;
43385;Laerm;28988;48.042;7.584;2023-10-19T08:39:07;84.99;-40.69;97.13;;
43385;Laerm;28988;48.042;7.584;2023-10-19T08:41:54;85.04;-38.65;96.56;;
43385;Laerm;28988;48.042;7.584;2023-10-19T08:44:41;85.54;-32.90;97.08;;
43385;Laerm;28988;48.042;7.584;2023-10-19T08:47:26;86.37;-37.13;98.31;;
43385;Laerm;28988;48.042;7.584;2023-10-19T08:50:12;86.89;-51.81;97.73;;
43385;Laerm;28988;48.042;7.584;2023-10-19T08:53:00;84.31;-23.73;95.56;;
43385;Laerm;28988;48.042;7.584;2023-10-19T08:55:48;84.21;-33.10;94.08;;
43385;Laerm;28988;48.042;7.584;2023-10-19T08:58:35;84.19;-41.53;94.78;;
43385;Laerm;28988;48.042;7.584;2023-10-19T09:01:21;84.17;-31.77;93.55;;
43385;Laerm;28988;48.042;7.584;2023-10-19T09:04:12;84.16;-20.71;93.80;;
43385;Laerm;28988;48.042;7.584;2023-10-19T09:07:02;84.14;-20.71;93.31;;
43385;Laerm;28988;48.042;7.584;2023-10-19T09:09:53;84.14;-20.71;93.48;;
43385;Laerm;28988;48.042;7.584;2023-10-19T09:12:41;84.13;-27.16;93.49;;
43385;Laerm;28988;48.042;7.584;2023-10-19T09:15:28;84.13;-31.77;93.31;;
43385;Laerm;28988;48.042;7.584;2023-10-19T09:18:22;84.14;-23.85;93.46;;
43385;Laerm;28988;48.042;7.584;2023-10-19T09:21:08;84.13;-22.68;93.31;;
43385;Laerm;28988;48.042;7.584;2023-10-19T09:23:57;84.13;-31.77;93.31;;
43385;Laerm;28988;48.042;7.584;2023-10-19T09:26:43;84.14;-27.16;93.13;;
43385;Laerm;28988;48.042;7.584;2023-10-19T09:29:28;84.12;-23.75;92.74;;
43385;Laerm;28988;48.042;7.584;2023-10-19T09:32:14;84.13;-27.16;93.21;;
43385;Laerm;28988;48.042;7.584;2023-10-19T09:35:00;84.13;-51.62;93.31;;
43385;Laerm;28988;48.042;7.584;2023-10-19T09:37:46;84.11;-25.37;93.27;;
43385;Laerm;28988;48.042;7.584;2023-10-19T09:40:33;84.09;-35.05;93.17;;
43385;Laerm;28988;48.042;7.584;2023-10-19T09:46:22;84.13;-51.62;93.43;;
43385;Laerm;28988;48.042;7.584;2023-10-19T09:49:08;84.13;-25.94;93.18;;
43385;Laerm;28988;48.042;7.584;2023-10-19T09:51:57;84.13;-51.62;93.31;;
43385;Laerm;28988;48.042;7.584;2023-10-19T09:57:51;84.13;-51.62;93.37;;
43385;Laerm;28988;48.042;7.584;2023-10-19T10:00:37;84.13;-31.77;93.13;;
43385;Laerm;28988;48.042;7.584;2023-10-19T10:09:13;84.13;-31.77;93.23;;
43385;Laerm;28988;48.042;7.584;2023-10-19T10:12:15;84.12;-22.68;93.67;;
43385;Laerm;28988;48.042;7.584;2023-10-19T10:15:01;84.13;-25.94;93.11;;
43385;Laerm;28988;48.042;7.584;2023-10-19T10:17:51;84.13;-24.69;93.31;;
43385;Laerm;28988;48.042;7.584;2023-10-19T10:20:40;84.14;-20.71;93.31;;
43385;Laerm;28988;48.042;7.584;2023-10-19T10:23:26;84.14;-22.68;93.22;;
43385;Laerm;28988;48.042;7.584;2023-10-19T10:26:18;84.17;-31.77;94.26;;
43385;Laerm;28988;48.042;7.584;2023-10-19T10:29:14;84.20;-57.68;94.21;;
43385;Laerm;28988;48.042;7.584;2023-10-19T10:32:05;84.22;-57.68;94.51;;
43385;Laerm;28988;48.042;7.584;2023-10-19T10:34:53;84.26;-57.68;95.04;;
43385;Laerm;28988;48.042;7.584;2023-10-19T10:37:39;84.27;-23.73;95.17;;
43385;Laerm;28988;48.042;7.584;2023-10-19T10:40:45;84.28;-23.73;95.29;;
43385;Laerm;28988;48.042;7.584;2023-10-19T10:43:32;84.28;-57.68;95.53;;
43385;Laerm;28988;48.042;7.584;2023-10-19T10:46:18;84.26;-57.68;95.29;;
43385;Laerm;28988;48.042;7.584;2023-10-19T10:49:07;84.28;-31.14;95.63;;
43385;Laerm;28988;48.042;7.584;2023-10-19T10:51:54;84.26;-33.10;95.19;;
43385;Laerm;28988;48.042;7.584;2023-10-19T10:54:41;84.26;-23.73;95.48;;
43385;Laerm;28988;48.042;7.584;2023-10-19T10:57:31;84.26;-28.29;95.07;;
43385;Laerm;28988;48.042;7.584;2023-10-19T11:00:17;84.27;-34.89;95.39;;
43385;Laerm;28988;48.042;7.584;2023-10-19T11:03:06;84.27;-31.18;94.82;;
43385;Laerm;28988;48.042;7.584;2023-10-19T11:05:55;84.26;-47.13;94.90;;
43385;Laerm;28988;48.042;7.584;2023-10-19T11:08:41;84.26;-28.29;95.11;;
43385;Laerm;28988;48.042;7.584;2023-10-19T11:11:27;84.26;-33.10;95.32;;
43385;Laerm;28988;48.042;7.584;2023-10-19T11:14:13;84.25;-57.68;95.29;;
43385;Laerm;28988;48.042;7.584;2023-10-19T11:17:12;84.25;-23.73;95.18;;
43385;Laerm;28988;48.042;7.584;2023-10-19T11:19:59;84.23;-57.68;94.41;;
43385;Laerm;28988;48.042;7.584;2023-10-19T11:22:48;84.24;-33.10;95.14;;
43385;Laerm;28988;48.042;7.584;2023-10-19T11:25:34;84.22;-57.68;94.39;;
43385;Laerm;28988;48.042;7.584;2023-10-19T11:28:20;84.21;-57.68;95.08;;
43385;Laerm;28988;48.042;7.584;2023-10-19T11:34:01;84.21;-28.29;94.01;;
43385;Laerm;28988;48.042;7.584;2023-10-19T11:36:47;84.19;-33.10;94.30;;
43385;Laerm;28988;48.042;7.584;2023-10-19T11:39:37;84.19;-57.68;94.29;;
43385;Laerm;28988;48.042;7.584;2023-10-19T11:42:22;84.18;-57.68;94.07;;
43385;Laerm;28988;48.042;7.584;2023-10-19T11:45:08;84.16;-57.68;93.65;;
43385;Laerm;28988;48.042;7.584;2023-10-19T11:47:56;84.15;-20.71;93.97;;
43385;Laerm;28988;48.042;7.584;2023-10-19T11:50:42;84.14;-21.61;93.18;;
43385;Laerm;28988;48.042;7.584;2023-10-19T11:53:28;84.14;-36.67;93.87;;
43385;Laerm;28988;48.042;7.584;2023-10-19T11:56:18;84.14;-39.80;93.31;;
43385;Laerm;28988;48.042;7.584;2023-10-19T11:59:06;84.14;-20.71;93.49;;
43385;Laerm;28988;48.042;7.584;2023-10-19T12:01:52;84.14;-38.65;93.37;;
43385;Laerm;28988;48.042;7.584;2023-10-19T12:04:40;84.15;-38.42;93.53;;
43385;Laerm;28988;48.042;7.584;2023-10-19T12:07:25;84.14;-33.10;93.51;;
43385;Laerm;28988;48.042;7.584;2023-10-19T12:10:12;84.14;-38.65;93.31;;
43385;Laerm;28988;48.042;7.584;2023-10-19T12:12:58;84.13;-20.71;93.66;;
43385;Laerm;28988;48.042;7.584;2023-10-19T12:15:43;84.14;-45.84;93.49;;
43385;Laerm;28988;48.042;7.584;2023-10-19T12:18:40;84.13;-43.42;93.49;;
43385;Laerm;28988;48.042;7.584;2023-10-19T12:21:27;84.14;-21.61;93.66;;
43385;Laerm;28988;48.042;7.584;2023-10-19T12:24:13;84.12;-20.71;93.13;;
43385;Laerm;28988;48.042;7.584;2023-10-19T12:27:00;84.14;-20.71;93.81;;
43385;Laerm;28988;48.042;7.584;2023-10-19T12:29:47;84.14;-20.71;93.67;;
43385;Laerm;28988;48.042;7.584;2023-10-19T12:32:33;84.15;-20.71;93.31;;
43385;Laerm;28988;48.042;7.584;2023-10-19T12:35:21;84.13;-23.18;93.13;;
43385;Laerm;28988;48.042;7.584;2023-10-19T12:38:15;84.13;-22.68;93.51;;
43385;Laerm;28988;48.042;7.584;2023-10-19T12:41:01;84.14;-20.71;93.64;;
43385;Laerm;28988;48.042;7.584;2023-10-19T12:43:48;84.13;-20.71;93.46;;
43385;Laerm;28988;48.042;7.584;2023-10-19T12:46:34;84.15;-35.14;93.82;;
43385;Laerm;28988;48.042;7.584;2023-10-19T12:49:22;84.14;-24.72;93.65;;
43385;Laerm;28988;48.042;7.584;2023-10-19T12:52:11;84.13;-25.07;93.13;;
43385;Laerm;28988;48.042;7.584;2023-10-19T12:54:57;84.14;-31.77;92.95;;
43385;Laerm;28988;48.042;7.584;2023-10-19T12:57:46;84.13;-48.09;93.37;;
43385;Laerm;28988;48.042;7.584;2023-10-19T13:00:31;84.13;-22.68;93.30;;
43385;Laerm;28988;48.042;7.584;2023-10-19T13:03:21;84.13;-31.77;93.18;;
43385;Laerm;28988;48.042;7.584;2023-10-19T13:06:08;84.13;-48.82;93.57;;
43385;Laerm;28988;48.042;7.584;2023-10-19T13:08:54;84.13;-30.70;93.23;;
43385;Laerm;28988;48.042;7.584;2023-10-19T13:11:39;84.13;-22.68;93.13;;
43385;Laerm;28988;48.042;7.584;2023-10-19T13:14:29;84.13;-24.41;93.52;;
43385;Laerm;28988;48.042;7.584;2023-10-19T13:17:14;84.13;-20.71;93.50;;
43385;Laerm;28988;48.042;7.584;2023-10-19T13:20:00;84.13;-51.62;93.36;;
43385;Laerm;28988;48.042;7.584;2023-10-19T13:22:46;84.12;-31.77;93.23;;
43385;Laerm;28988;48.042;7.584;2023-10-19T13:25:33;84.13;-34.98;93.36;;
43385;Laerm;28988;48.042;7.584;2023-10-19T13:28:27;84.13;-27.23;93.23;;
43385;Laerm;28988;48.042;7.584;2023-10-19T13:31:13;84.13;-31.77;93.49;;
43385;Laerm;28988;48.042;7.584;2023-10-19T13:34:01;84.13;-20.71;93.18;;
43385;Laerm;28988;48.042;7.584;2023-10-19T13:36:48;84.14;-20.71;93.13;;
43385;Laerm;28988;48.042;7.584;2023-10-19T13:39:36;84.14;-31.77;93.31;;
43385;Laerm;28988;48.042;7.584;2023-10-19T13:42:24;84.13;-20.71;93.31;;
43385;Laerm;28988;48.042;7.584;2023-10-19T13:45:10;84.14;-20.71;93.31;;
43385;Laerm;28988;48.042;7.584;2023-10-19T13:48:03;84.13;-20.71;94.26;;
43385;Laerm;28988;48.042;7.584;2023-10-19T13:50:49;84.14;-20.71;93.68;;
43385;Laerm;28988;48.042;7.584;2023-10-19T13:53:35;84.14;-31.23;93.52;;
43385;Laerm;28988;48.042;7.584;2023-10-19T13:56:20;84.13;-31.77;93.30;;
43385;Laerm;28988;48.042;7.584;2023-10-19T13:59:06;84.14;-22.68;93.75;;
43385;Laerm;28988;48.042;7.584;2023-10-19T14:01:52;84.14;-22.68;93.36;;
43385;Laerm;28988;48.042;7.584;2023-10-19T14:04:37;84.14;-35.14;93.82;;
43385;Laerm;28988;48.042;7.584;2023-10-19T14:07:23;84.14;-31.10;93.62;;
43385;Laerm;28988;48.042;7.584;2023-10-19T14:10:09;84.14;-27.66;93.31;;
43385;Laerm;28988;48.042;7.584;2023-10-19T14:13:00;84.13;-22.68;93.13;;
43385;Laerm;28988;48.042;7.584;2023-10-19T14:15:46;84.14;-20.71;93.31;;
43385;Laerm;28988;48.042;7.584;2023-10-19T14:18:31;84.13;-38.65;93.48;;
43385;Laerm;28988;48.042;7.584;2023-10-19T14:21:17;84.13;-27.16;93.66;;
43385;Laerm;28988;48.042;7.584;2023-10-19T14:24:04;84.13;-22.68;93.32;;
43385;Laerm;28988;48.042;7.584;2023-10-19T14:26:50;84.13;-29.60;92.99;;
43385;Laerm;28988;48.042;7.584;2023-10-19T14:29:36;84.13;-27.16;92.98;;
43385;Laerm;28988;48.042;7.584;2023-10-19T14:32:22;84.13;-31.77;93.28;;
43385;Laerm;28988;48.042;7.584;2023-10-19T14:35:11;84.13;-20.71;93.62;;
43385;Laerm;28988;48.042;7.584;2023-10-19T14:37:57;84.13;-33.10;93.18;;
43385;Laerm;28988;48.042;7.584;2023-10-19T14:40:45;84.13;-20.71;93.15;;
43385;Laerm;28988;48.042;7.584;2023-10-19T14:43:33;84.13;-31.77;93.23;;
43385;Laerm;28988;48.042;7.584;2023-10-19T14:46:19;84.13;-38.65;93.17;;
43385;Laerm;28988;48.042;7.584;2023-10-19T14:49:04;84.14;-27.16;93.93;;
43385;Laerm;28988;48.042;7.584;2023-10-19T14:51:51;84.13;-20.71;93.48;;
43385;Laerm;28988;48.042;7.584;2023-10-19T14:54:37;84.10;-38.01;93.45;;
43385;Laerm;28988;48.042;7.584;2023-10-19T14:57:23;84.07;-30.57;93.88;;
43385;Laerm;28988;48.042;7.584;2023-10-19T15:00:11;84.02;-45.95;94.12;;
43385;Laerm;28988;48.042;7.584;2023-10-19T15:03:19;83.99;-43.51;94.36;;
43385;Laerm;28988;48.042;7.584;2023-10-19T15:06:05;83.93;-47.13;93.94;;
43385;Laerm;28988;48.042;7.584;2023-10-19T15:08:52;84.03;-62.76;94.69;;
43385;Laerm;28988;48.042;7.584;2023-10-19T15:11:37;84.69;-39.66;96.39;;
43385;Laerm;28988;48.042;7.584;2023-10-19T15:14:23;85.92;-24.05;96.37;;
43385;Laerm;28988;48.042;7.584;2023-10-19T15:17:09;87.45;-30.98;96.98;;
43385;Laerm;28988;48.042;7.584;2023-10-19T15:19:54;88.27;-40.22;97.17;;
43385;Laerm;28988;48.042;7.584;2023-10-19T15:22:44;87.84;-43.82;97.91;;
43385;Laerm;28988;48.042;7.584;2023-10-19T17:11:11;84.64;-38.65;95.62;;
43385;Laerm;28988;48.042;7.584;2023-10-19T17:13:57;86.13;-28.16;97.87;;
43385;Laerm;28988;48.042;7.584;2023-10-19T17:16:43;87.63;-21.52;97.19;;
43385;Laerm;28988;48.042;7.584;2023-10-19T17:19:29;89.48;-38.64;97.06;;
43385;Laerm;28988;48.042;7.584;2023-10-19T17:22:16;88.08;-70.54;97.26;;
43385;Laerm;28988;48.042;7.584;2023-10-19T17:25:01;85.68;-31.96;96.74;;